Time;durP1;ratioP1;P1;durP2;ratioP2;P2;SDS_P1;SDS_P2;PMS_P1;PMS_P2;Temp;Humidity;BMP_temperature;BMP_pressure;BME280_temperature;BME280_humidity;BME280_pressure;Samples;Min_cycle;Max_cycle;Signal;HPM_P1;HPM_P2
2021/09/02 00:01:39;;;;;;;14.90;9.48;;;12.00;99.90;;;;;;5094916;28;20087;-78
2021/09/02 00:04:04;;;;;;;10.95;8.25;;;11.90;99.90;;;;;;5075426;28;20024;-78
2021/09/02 00:06:30;;;;;;;12.98;9.23;;;11.90;99.90;;;;;;5092347;28;20036;-78
2021/09/02 00:08:56;;;;;;;13.05;9.10;;;11.90;99.90;;;;;;5109800;28;20421;-77
2021/09/02 00:11:21;;;;;;;12.73;8.35;;;11.80;99.90;;;;;;5075354;28;20066;-79
2021/09/02 00:13:47;;;;;;;13.88;8.52;;;11.80;99.90;;;;;;5085093;28;20028;-79
2021/09/02 00:16:13;;;;;;;11.70;8.73;;;11.80;99.90;;;;;;5086389;28;20024;-78
2021/09/02 00:18:39;;;;;;;12.40;8.55;;;11.70;99.90;;;;;;5089965;28;20484;-78
2021/09/02 00:21:04;;;;;;;16.02;9.20;;;11.70;99.90;;;;;;5107242;28;20481;-78
2021/09/02 00:23:30;;;;;;;13.88;8.80;;;11.70;99.90;;;;;;5080618;28;20028;-77
2021/09/02 00:25:56;;;;;;;13.05;9.25;;;11.70;99.90;;;;;;5074953;28;20060;-77
2021/09/02 00:28:22;;;;;;;11.13;8.10;;;11.70;99.90;;;;;;5073749;28;20371;-77
2021/09/02 00:30:48;;;;;;;17.20;9.85;;;11.60;99.90;;;;;;5086482;28;20124;-77
2021/09/02 00:33:18;;;;;;;15.18;8.88;;;11.70;99.90;;;;;;5095257;28;20427;-78
2021/09/02 00:35:44;;;;;;;10.75;8.38;;;11.60;99.90;;;;;;5110753;28;20025;-77
2021/09/02 00:38:09;;;;;;;11.73;8.95;;;11.60;99.90;;;;;;5097556;28;20047;-78
2021/09/02 00:40:35;;;;;;;15.63;9.75;;;11.60;99.90;;;;;;5074730;28;20067;-77
2021/09/02 00:43:01;;;;;;;11.10;8.00;;;11.60;99.90;;;;;;5073487;28;20048;-77
2021/09/02 00:45:26;;;;;;;13.10;8.52;;;11.60;99.90;;;;;;5074574;28;20029;-77
2021/09/02 00:47:52;;;;;;;12.95;9.00;;;11.60;99.90;;;;;;5073381;28;20021;-78
2021/09/02 00:50:18;;;;;;;12.93;8.65;;;11.70;99.90;;;;;;5072530;28;20029;-78
2021/09/02 00:52:44;;;;;;;15.52;8.32;;;11.70;99.90;;;;;;5077064;28;20016;-78
2021/09/02 00:55:10;;;;;;;12.85;8.80;;;11.70;99.90;;;;;;5076638;28;20567;-77
2021/09/02 00:57:37;;;;;;;12.50;8.20;;;11.70;99.90;;;;;;5073151;28;20427;-77
2021/09/02 01:00:09;;;;;;;10.32;7.72;;;11.70;99.90;;;;;;5074352;28;20031;-77
2021/09/02 01:02:35;;;;;;;14.80;9.57;;;11.70;99.90;;;;;;5073058;28;20390;-77
2021/09/02 01:05:02;;;;;;;14.98;9.55;;;11.70;99.90;;;;;;5074301;28;20025;-78
2021/09/02 01:07:30;;;;;;;14.05;8.55;;;11.70;99.90;;;;;;5074228;28;20062;-77
2021/09/02 01:09:57;;;;;;;15.60;9.48;;;11.70;99.90;;;;;;5072845;28;20017;-78
2021/09/02 01:12:35;;;;;;;19.05;9.48;;;11.80;99.90;;;;;;5072838;28;20355;-77
2021/09/02 01:15:14;;;;;;;13.52;8.77;;;11.80;99.90;;;;;;5085755;28;20020;-77
2021/09/02 01:17:41;;;;;;;14.18;9.73;;;11.80;99.90;;;;;;5094350;28;20427;-77
2021/09/02 01:20:09;;;;;;;12.57;8.20;;;11.90;99.90;;;;;;5094287;28;20103;-77
2021/09/02 01:22:36;;;;;;;13.20;8.18;;;11.90;99.90;;;;;;5109848;28;20016;-77
2021/09/02 01:25:12;;;;;;;11.65;7.95;;;11.90;99.90;;;;;;5094530;28;20036;-77
2021/09/02 01:27:38;;;;;;;11.27;8.00;;;11.90;99.90;;;;;;5093901;28;20040;-77
2021/09/02 01:30:10;;;;;;;11.25;7.90;;;12.00;99.90;;;;;;5094041;28;20056;-77
2021/09/02 01:32:38;;;;;;;14.75;8.75;;;12.00;99.90;;;;;;5094037;28;20020;-77
2021/09/02 01:35:06;;;;;;;13.18;8.77;;;12.00;99.90;;;;;;5093949;28;20020;-78
2021/09/02 01:37:46;;;;;;;16.85;8.52;;;11.90;99.90;;;;;;5092834;28;20393;-77
2021/09/02 01:40:23;;;;;;;13.05;8.35;;;11.90;99.90;;;;;;5093960;28;20043;-77
2021/09/02 01:42:50;;;;;;;16.85;8.65;;;11.90;99.90;;;;;;5092677;28;20036;-78
2021/09/02 01:45:16;;;;;;;13.20;9.18;;;11.90;99.90;;;;;;5093343;28;20016;-77
2021/09/02 01:47:42;;;;;;;10.82;8.55;;;11.90;99.90;;;;;;5092397;28;20076;-78
2021/09/02 01:50:10;;;;;;;15.88;9.20;;;11.90;99.90;;;;;;5092468;28;20046;-78
2021/09/02 01:52:36;;;;;;;12.70;8.70;;;11.90;99.90;;;;;;5109280;28;20125;-77
2021/09/02 01:55:03;;;;;;;17.63;9.60;;;11.90;99.90;;;;;;5113770;28;20027;-77
2021/09/02 01:57:29;;;;;;;14.98;10.13;;;11.90;99.90;;;;;;5113960;28;20516;-78
2021/09/02 01:59:54;;;;;;;14.50;10.00;;;11.80;99.90;;;;;;5112599;28;20096;-78
2021/09/02 02:02:20;;;;;;;19.00;11.52;;;11.80;99.90;;;;;;5113935;28;20046;-79
2021/09/02 02:04:45;;;;;;;17.27;10.90;;;11.80;99.90;;;;;;5112476;28;20012;-78
2021/09/02 02:07:11;;;;;;;19.77;10.23;;;11.80;99.90;;;;;;5112443;28;20457;-78
2021/09/02 02:09:37;;;;;;;17.25;10.20;;;11.70;99.90;;;;;;5113666;28;20019;-78
2021/09/02 02:12:03;;;;;;;15.57;9.35;;;11.70;99.90;;;;;;5113740;28;20038;-78
2021/09/02 02:14:28;;;;;;;13.55;8.80;;;11.70;99.90;;;;;;5101242;28;20114;-78
2021/09/02 02:16:54;;;;;;;13.15;9.23;;;11.70;99.90;;;;;;5108981;28;20065;-78
2021/09/02 02:19:20;;;;;;;13.48;9.10;;;11.70;99.90;;;;;;5093221;28;20024;-78
2021/09/02 02:21:46;;;;;;;14.25;8.73;;;11.70;99.90;;;;;;5093215;28;20108;-78
2021/09/02 02:24:11;;;;;;;13.00;7.90;;;11.60;99.90;;;;;;5108911;28;20481;-78
2021/09/02 02:26:37;;;;;;;11.80;7.57;;;11.70;99.90;;;;;;5093328;28;20036;-78
2021/09/02 02:29:03;;;;;;;9.48;7.88;;;11.60;99.90;;;;;;5097725;28;20078;-77
2021/09/02 02:31:29;;;;;;;11.32;7.82;;;11.60;99.90;;;;;;5072243;28;20031;-78
2021/09/02 02:33:54;;;;;;;13.80;8.45;;;11.60;99.90;;;;;;5072866;28;20474;-78
2021/09/02 02:36:20;;;;;;;16.58;9.73;;;11.60;99.90;;;;;;5071481;28;20024;-77
2021/09/02 02:38:46;;;;;;;16.15;9.70;;;11.60;99.90;;;;;;5071044;28;20032;-78
2021/09/02 02:41:11;;;;;;;16.92;9.13;;;11.60;99.90;;;;;;5071486;28;20024;-78
2021/09/02 02:43:37;;;;;;;16.88;9.60;;;11.60;99.90;;;;;;5075586;28;20385;-79
2021/09/02 02:46:02;;;;;;;17.55;9.93;;;11.60;99.90;;;;;;5104276;28;20035;-78
2021/09/02 02:48:28;;;;;;;13.13;9.13;;;11.60;99.90;;;;;;5092889;28;20031;-78
2021/09/02 02:50:54;;;;;;;15.23;10.40;;;11.60;99.90;;;;;;5108481;28;20024;-78
2021/09/02 02:53:19;;;;;;;17.98;11.27;;;11.60;99.90;;;;;;5092935;28;20040;-79
2021/09/02 02:55:45;;;;;;;21.55;12.35;;;11.70;99.90;;;;;;5091531;28;20056;-78
2021/09/02 02:58:10;;;;;;;20.17;13.18;;;11.70;99.90;;;;;;5092885;28;20099;-79
2021/09/02 03:00:36;;;;;;;16.83;11.70;;;11.70;99.90;;;;;;5091490;28;20046;-78
2021/09/02 03:03:02;;;;;;;19.02;12.43;;;11.80;99.90;;;;;;5091478;28;20500;-78
2021/09/02 03:05:27;;;;;;;16.08;11.20;;;11.80;99.90;;;;;;5092551;28;20111;-77
2021/09/02 03:07:53;;;;;;;17.38;10.52;;;11.80;99.90;;;;;;5092638;28;20103;-78
2021/09/02 03:10:19;;;;;;;21.00;11.10;;;11.80;99.90;;;;;;5092619;28;20103;-78
2021/09/02 03:12:44;;;;;;;18.15;11.00;;;11.80;99.90;;;;;;5091303;28;20062;-77
2021/09/02 03:15:11;;;;;;;22.35;14.55;;;11.80;99.90;;;;;;5091094;28;20024;-78
2021/09/02 03:17:37;;;;;;;19.25;12.27;;;11.80;99.90;;;;;;5091490;28;20078;-77
2021/09/02 03:20:04;;;;;;;20.50;13.77;;;11.80;99.90;;;;;;5091102;28;20048;-77
2021/09/02 03:22:30;;;;;;;18.60;12.18;;;11.80;99.90;;;;;;5092383;28;20024;-78
2021/09/02 03:24:56;;;;;;;19.73;12.20;;;11.80;99.90;;;;;;5091157;28;20080;-78
2021/09/02 03:27:22;;;;;;;21.20;12.18;;;11.80;99.90;;;;;;5091563;28;20104;-78
2021/09/02 03:29:47;;;;;;;21.08;11.60;;;11.80;99.90;;;;;;5091022;28;20478;-78
2021/09/02 03:32:13;;;;;;;21.98;12.65;;;11.80;99.90;;;;;;5092622;28;20370;-78
2021/09/02 03:34:39;;;;;;;22.35;11.82;;;11.70;99.90;;;;;;5092454;28;20362;-78
2021/09/02 03:37:04;;;;;;;18.00;11.13;;;11.70;99.90;;;;;;5092518;28;20020;-78
2021/09/02 03:39:30;;;;;;;18.67;10.90;;;11.70;99.90;;;;;;5091123;28;20043;-78
2021/09/02 03:41:56;;;;;;;20.63;12.32;;;11.70;99.90;;;;;;5092181;28;20025;-78
2021/09/02 03:44:21;;;;;;;22.17;12.88;;;11.70;99.90;;;;;;5092360;28;20028;-77
2021/09/02 03:46:47;;;;;;;22.58;13.98;;;11.70;99.90;;;;;;5091029;28;20036;-77
2021/09/02 03:49:13;;;;;;;17.95;12.02;;;11.70;99.90;;;;;;5091103;28;20038;-77
2021/09/02 03:51:39;;;;;;;20.48;11.63;;;11.70;99.90;;;;;;5093680;28;20031;-78
2021/09/02 03:54:04;;;;;;;23.77;13.77;;;11.70;99.90;;;;;;5094369;28;20016;-78
2021/09/02 03:56:30;;;;;;;24.42;12.13;;;11.60;99.90;;;;;;5094593;28;20123;-77
2021/09/02 03:58:56;;;;;;;20.38;12.73;;;11.60;99.90;;;;;;5094027;28;20020;-79
2021/09/02 04:01:22;;;;;;;20.60;12.00;;;11.60;99.90;;;;;;5084364;28;20131;-78
2021/09/02 04:03:48;;;;;;;22.10;13.18;;;11.60;99.90;;;;;;5084001;28;20198;-78
2021/09/02 04:06:14;;;;;;;17.77;12.57;;;11.60;99.90;;;;;;5094282;28;20496;-78
2021/09/02 04:08:39;;;;;;;16.30;13.18;;;11.50;99.90;;;;;;5094320;28;20496;-78
2021/09/02 04:11:05;;;;;;;22.70;12.57;;;11.50;99.90;;;;;;5095307;28;20400;-78
2021/09/02 04:13:31;;;;;;;24.48;13.60;;;11.50;99.90;;;;;;5089516;28;20071;-78
2021/09/02 04:15:56;;;;;;;22.88;12.52;;;11.50;99.90;;;;;;5095854;28;20089;-78
2021/09/02 04:18:22;;;;;;;22.17;12.68;;;11.50;99.90;;;;;;5078785;28;20052;-77
2021/09/02 04:20:48;;;;;;;21.58;12.57;;;11.50;99.90;;;;;;5084351;28;20035;-77
2021/09/02 04:23:13;;;;;;;22.88;13.85;;;11.50;99.90;;;;;;5095021;28;20031;-78
2021/09/02 04:25:39;;;;;;;26.63;13.98;;;11.50;99.90;;;;;;5087152;28;20042;-78
2021/09/02 04:28:05;;;;;;;29.40;16.10;;;11.50;99.90;;;;;;5094296;28;20046;-78
2021/09/02 04:30:31;;;;;;;29.27;15.77;;;11.50;99.90;;;;;;5094974;28;20107;-77
2021/09/02 04:32:56;;;;;;;28.27;14.80;;;11.40;99.90;;;;;;5093392;28;20507;-78
2021/09/02 04:35:22;;;;;;;23.85;15.60;;;11.50;99.90;;;;;;5086921;28;20036;-78
2021/09/02 04:37:48;;;;;;;29.83;15.35;;;11.50;99.90;;;;;;5093256;28;20024;-78
2021/09/02 04:40:15;;;;;;;27.08;16.25;;;11.50;99.90;;;;;;5074783;28;20462;-78
2021/09/02 04:42:41;;;;;;;23.70;14.38;;;11.50;99.90;;;;;;5094712;28;20024;-78
2021/09/02 04:45:08;;;;;;;27.13;16.20;;;11.50;99.90;;;;;;5088696;28;20024;-78
2021/09/02 04:47:34;;;;;;;30.23;18.55;;;11.60;99.90;;;;;;5094590;28;20040;-78
2021/09/02 04:49:59;;;;;;;29.08;18.25;;;11.60;99.90;;;;;;5077320;28;20041;-78
2021/09/02 04:52:25;;;;;;;27.65;18.27;;;11.60;99.90;;;;;;5073236;28;20025;-78
2021/09/02 04:54:51;;;;;;;34.28;18.38;;;11.70;99.90;;;;;;5075363;28;20106;-77
2021/09/02 04:57:19;;;;;;;31.52;18.20;;;11.70;99.90;;;;;;5093127;28;20028;-78
2021/09/02 04:59:46;;;;;;;27.08;16.42;;;11.80;99.90;;;;;;5089785;28;20024;-78
2021/09/02 05:02:12;;;;;;;27.15;17.55;;;11.80;99.90;;;;;;5089225;28;20028;-78
2021/09/02 05:04:38;;;;;;;27.13;15.80;;;11.80;99.90;;;;;;5090501;28;20111;-78
2021/09/02 05:07:03;;;;;;;27.40;16.23;;;11.80;99.90;;;;;;5092825;28;20111;-78
2021/09/02 05:09:29;;;;;;;24.23;15.38;;;11.90;99.90;;;;;;5088010;28;20104;-77
2021/09/02 05:11:55;;;;;;;29.35;18.27;;;11.90;99.90;;;;;;5092467;28;20537;-78
2021/09/02 05:14:20;;;;;;;27.05;15.65;;;11.90;99.90;;;;;;5089304;28;20034;-77
2021/09/02 05:16:46;;;;;;;22.35;13.10;;;12.00;99.90;;;;;;5092863;28;20016;-78
2021/09/02 05:19:12;;;;;;;19.80;13.13;;;12.10;99.90;;;;;;5091221;28;20038;-77
2021/09/02 05:21:37;;;;;;;19.65;12.88;;;12.20;99.90;;;;;;5091862;28;20525;-78
2021/09/02 05:24:03;;;;;;;19.10;12.68;;;12.20;99.90;;;;;;5081838;28;20032;-77
2021/09/02 05:26:29;;;;;;;25.92;13.23;;;12.20;99.90;;;;;;5092434;28;20127;-79
2021/09/02 05:28:55;;;;;;;19.88;12.85;;;12.20;99.90;;;;;;5094045;28;20503;-78
2021/09/02 05:31:21;;;;;;;25.35;14.95;;;12.20;99.90;;;;;;5091710;28;20032;-78
2021/09/02 05:33:47;;;;;;;28.90;16.45;;;12.10;99.90;;;;;;5082442;28;20024;-78
2021/09/02 05:36:13;;;;;;;25.95;17.27;;;12.10;99.90;;;;;;5072653;28;20024;-78
2021/09/02 05:38:38;;;;;;;25.83;16.35;;;12.10;99.90;;;;;;5075341;28;20029;-78
2021/09/02 05:41:04;;;;;;;30.10;17.92;;;12.10;99.90;;;;;;5086498;28;20056;-78
2021/09/02 05:43:30;;;;;;;26.02;15.95;;;12.00;99.90;;;;;;5089779;28;20102;-77
2021/09/02 05:45:56;;;;;;;26.35;14.80;;;12.10;99.90;;;;;;5079566;28;20032;-78
2021/09/02 05:48:21;;;;;;;22.85;14.65;;;12.00;99.90;;;;;;5086235;28;20385;-78
2021/09/02 05:50:47;;;;;;;21.40;13.35;;;12.00;99.90;;;;;;5080737;28;20031;-77
2021/09/02 05:53:13;;;;;;;22.73;13.60;;;12.10;99.90;;;;;;5087471;28;20201;-77
2021/09/02 05:55:38;;;;;;;23.40;13.98;;;12.20;99.90;;;;;;5091572;28;20028;-77
2021/09/02 05:58:04;;;;;;;17.85;13.25;;;12.30;99.90;;;;;;5089435;28;20559;-78
2021/09/02 06:00:30;;;;;;;14.57;11.05;;;12.50;99.90;;;;;;5086048;28;20020;-78
2021/09/02 06:02:56;;;;;;;20.42;11.55;;;12.40;99.90;;;;;;5088989;28;20508;-78
2021/09/02 06:05:21;;;;;;;18.20;12.05;;;12.50;99.90;;;;;;5083156;28;20324;-78
2021/09/02 06:07:47;;;;;;;20.90;12.27;;;12.50;99.90;;;;;;5069880;28;20064;-78
2021/09/02 06:10:13;;;;;;;16.38;11.05;;;12.40;99.90;;;;;;5089815;28;20023;-78
2021/09/02 06:12:38;;;;;;;17.73;11.20;;;12.50;99.90;;;;;;5086899;28;20046;-78
2021/09/02 06:15:09;;;;;;;16.65;10.88;;;12.50;99.90;;;;;;5087584;28;20052;-79
2021/09/02 06:17:34;;;;;;;16.40;10.68;;;12.70;99.90;;;;;;5088869;28;20488;-78
2021/09/02 06:20:00;;;;;;;16.85;12.05;;;13.00;99.90;;;;;;5088615;28;20035;-79
2021/09/02 06:22:26;;;;;;;14.15;9.82;;;13.30;99.90;;;;;;5089366;28;20043;-79
2021/09/02 06:24:51;;;;;;;13.10;9.85;;;13.30;99.90;;;;;;5089893;28;20032;-79
2021/09/02 06:27:17;;;;;;;15.05;9.15;;;13.30;99.90;;;;;;5089836;28;20044;-78
2021/09/02 06:29:43;;;;;;;10.50;7.68;;;13.30;99.90;;;;;;5091395;28;20032;-78
2021/09/02 06:32:08;;;;;;;14.25;7.78;;;13.30;99.90;;;;;;5096047;28;20039;-79
2021/09/02 06:34:34;;;;;;;13.88;8.13;;;13.40;99.90;;;;;;5085534;28;20385;-79
2021/09/02 06:37:00;;;;;;;11.65;6.97;;;13.50;99.90;;;;;;5106179;28;20024;-80
2021/09/02 06:39:25;;;;;;;13.63;7.70;;;13.60;99.90;;;;;;5101145;28;20101;-79
2021/09/02 06:41:51;;;;;;;15.32;8.43;;;13.70;99.90;;;;;;5073251;28;20029;-79
2021/09/02 06:44:17;;;;;;;14.65;8.73;;;14.00;99.90;;;;;;5089625;28;20032;-79
2021/09/02 06:46:42;;;;;;;9.80;6.05;;;14.20;99.90;;;;;;5092447;28;20078;-79
2021/09/02 06:49:08;;;;;;;11.57;6.55;;;14.20;99.90;;;;;;5071526;28;20116;-79
2021/09/02 06:51:36;;;;;;;11.23;6.28;;;14.20;99.90;;;;;;5088593;28;20115;-79
2021/09/02 06:54:02;;;;;;;8.15;6.15;;;14.30;99.90;;;;;;5093094;28;20051;-79
2021/09/02 06:56:27;;;;;;;12.15;7.20;;;14.30;99.90;;;;;;5092593;28;20032;-79
2021/09/02 06:58:53;;;;;;;12.18;6.03;;;14.40;99.90;;;;;;5092845;28;20381;-79
2021/09/02 07:01:19;;;;;;;12.82;7.18;;;14.50;99.90;;;;;;5093413;28;20027;-79
2021/09/02 07:03:45;;;;;;;9.40;6.25;;;14.60;99.90;;;;;;5105284;28;20023;-79
2021/09/02 07:06:10;;;;;;;10.57;6.00;;;14.80;99.90;;;;;;5092262;28;20036;-79
2021/09/02 07:08:36;;;;;;;8.32;5.28;;;14.80;99.90;;;;;;5092193;28;20051;-79
2021/09/02 07:11:03;;;;;;;10.10;5.45;;;14.90;99.90;;;;;;5090725;28;20028;-79
2021/09/02 07:13:29;;;;;;;6.63;5.03;;;14.80;99.90;;;;;;5090607;28;20760;-79
2021/09/02 07:15:55;;;;;;;9.05;5.47;;;14.80;99.90;;;;;;5091432;28;20103;-79
2021/09/02 07:18:20;;;;;;;6.78;4.63;;;14.90;99.90;;;;;;5088466;28;20478;-79
2021/09/02 07:20:46;;;;;;;7.65;4.88;;;15.00;99.90;;;;;;5072396;28;20107;-79
2021/09/02 07:23:11;;;;;;;9.13;5.30;;;15.10;99.90;;;;;;5071245;28;20074;-79
2021/09/02 07:25:37;;;;;;;9.23;4.40;;;15.10;99.90;;;;;;5089632;28;20056;-79
2021/09/02 07:28:03;;;;;;;6.78;5.10;;;15.30;99.90;;;;;;5112250;28;20493;-79
2021/09/02 07:30:28;;;;;;;8.45;4.03;;;15.30;99.90;;;;;;5111580;28;20070;-78
2021/09/02 07:32:54;;;;;;;6.95;4.55;;;15.40;99.90;;;;;;5094783;28;20016;-78
2021/09/02 07:35:20;;;;;;;6.65;5.20;;;15.50;99.90;;;;;;5095804;28;20027;-79
2021/09/02 07:37:46;;;;;;;7.07;4.15;;;15.60;99.90;;;;;;5102096;28;20066;-79
2021/09/02 07:40:12;;;;;;;6.22;3.95;;;15.60;99.90;;;;;;5095730;28;20071;-78
2021/09/02 07:42:37;;;;;;;8.32;3.95;;;15.60;99.90;;;;;;5094034;28;20481;-79
2021/09/02 07:45:04;;;;;;;6.07;4.22;;;15.60;99.90;;;;;;5102954;28;20085;-78
2021/09/02 07:47:31;;;;;;;6.45;3.95;;;15.60;99.90;;;;;;5095297;28;20039;-79
2021/09/02 07:49:57;;;;;;;8.07;3.97;;;15.60;98.00;;;;;;5091515;28;20031;-79
2021/09/02 07:52:22;;;;;;;7.28;3.78;;;15.60;99.90;;;;;;5094199;28;20020;-79
2021/09/02 07:54:48;;;;;;;5.78;3.90;;;15.70;99.60;;;;;;5093375;28;20028;-79
2021/09/02 07:57:14;;;;;;;6.85;4.03;;;15.80;96.70;;;;;;5093681;28;20066;-78
2021/09/02 07:59:40;;;;;;;7.35;3.10;;;16.00;95.90;;;;;;5102658;28;20020;-78
2021/09/02 08:02:06;;;;;;;5.18;3.30;;;16.20;96.10;;;;;;5095116;28;20024;-78
2021/09/02 08:04:31;;;;;;;7.03;3.20;;;16.00;88.30;;;;;;5093316;28;20091;-78
2021/09/02 08:06:57;;;;;;;8.70;3.70;;;16.00;90.40;;;;;;5094836;28;20028;-79
2021/09/02 08:09:23;;;;;;;15.05;3.08;;;16.00;88.40;;;;;;5094225;28;20046;-79
2021/09/02 08:11:48;;;;;;;5.70;3.45;;;16.30;93.00;;;;;;5094575;28;20024;-79
2021/09/02 08:14:14;;;;;;;6.43;3.17;;;16.20;87.60;;;;;;5094466;28;20115;-79
2021/09/02 08:16:40;;;;;;;6.03;3.10;;;16.30;85.60;;;;;;5095552;28;20048;-80
2021/09/02 08:19:05;;;;;;;8.57;3.63;;;16.20;86.50;;;;;;5094241;28;20101;-80
2021/09/02 08:21:31;;;;;;;5.28;2.95;;;16.20;85.80;;;;;;5111200;28;20065;-80
2021/09/02 08:23:58;;;;;;;6.65;4.75;;;16.40;84.50;;;;;;5110956;28;20485;-80
2021/09/02 08:26:26;;;;;;;6.20;2.88;;;16.50;88.60;;;;;;5106645;28;20036;-80
2021/09/02 08:28:52;;;;;;;4.18;2.90;;;16.40;82.50;;;;;;5106473;28;20016;-80
2021/09/02 08:31:17;;;;;;;6.72;3.92;;;16.60;88.50;;;;;;5110927;28;20020;-81
2021/09/02 08:33:43;;;;;;;5.47;3.25;;;16.50;83.90;;;;;;5102162;28;20036;-81
2021/09/02 08:36:09;;;;;;;5.65;3.58;;;16.40;86.40;;;;;;5079478;28;20111;-81
2021/09/02 08:38:38;;;;;;;4.63;2.85;;;16.40;79.50;;;;;;5090839;28;20028;-81
2021/09/02 08:41:04;;;;;;;6.88;3.05;;;16.50;85.30;;;;;;5081483;28;20047;-81
2021/09/02 08:43:30;;;;;;;5.13;3.28;;;16.40;87.10;;;;;;5079804;28;20482;-81
2021/09/02 08:45:56;;;;;;;8.82;4.03;;;16.40;92.80;;;;;;5087072;28;20066;-81
2021/09/02 08:48:23;;;;;;;8.93;3.72;;;16.40;93.70;;;;;;5087675;28;20032;-81
2021/09/02 08:50:50;;;;;;;8.27;3.40;;;16.60;89.70;;;;;;5073309;28;20569;-81
2021/09/02 08:53:15;;;;;;;4.35;2.10;;;16.80;87.50;;;;;;5074575;28;20024;-81
2021/09/02 08:55:41;;;;;;;6.78;3.85;;;16.90;83.00;;;;;;5074418;28;20116;-81
2021/09/02 08:58:07;;;;;;;4.72;2.83;;;16.80;78.60;;;;;;5091365;28;20055;-82
2021/09/02 09:00:32;;;;;;;2.90;2.60;;;16.70;78.20;;;;;;5092762;28;20028;-81
2021/09/02 09:03:02;;;;;;;5.53;3.05;;;16.70;78.70;;;;;;5094502;28;20020;-81
2021/09/02 09:05:31;;;;;;;4.63;2.97;;;16.70;79.50;;;;;;5110590;28;20016;-81
2021/09/02 09:07:57;;;;;;;3.47;2.90;;;16.70;82.50;;;;;;5106111;27;20032;-81
2021/09/02 09:10:26;;;;;;;4.47;3.05;;;16.80;82.80;;;;;;5108399;28;20070;-81
2021/09/02 09:13:00;;;;;;;4.32;2.88;;;16.80;79.60;;;;;;5091476;28;20028;-81
2021/09/02 09:15:33;;;;;;;5.88;3.33;;;16.80;81.10;;;;;;5089313;28;20062;-81
2021/09/02 09:18:18;;;;;;;6.15;3.28;;;17.00;80.50;;;;;;5093731;28;20024;-81
2021/09/02 09:20:45;;;;;;;5.45;2.65;;;17.10;81.70;;;;;;5092380;28;20031;-81
2021/09/02 09:23:11;;;;;;;4.18;3.03;;;17.30;79.60;;;;;;5092275;28;20355;-81
2021/09/02 09:25:36;;;;;;;4.82;2.70;;;17.60;80.90;;;;;;5092177;28;20028;-82
2021/09/02 09:28:03;;;;;;;3.97;2.45;;;17.80;85.40;;;;;;5090570;28;20032;-82
2021/09/02 09:30:34;;;;;;;3.70;2.70;;;17.80;77.70;;;;;;5092696;28;20017;-82
2021/09/02 09:33:04;;;;;;;4.80;2.60;;;18.00;83.50;;;;;;5102521;28;20032;-82
2021/09/02 09:35:37;;;;;;;3.42;2.20;;;18.10;78.80;;;;;;5106710;28;20024;-82
2021/09/02 09:38:16;;;;;;;4.38;2.63;;;18.00;77.20;;;;;;5081355;28;20036;-82
2021/09/02 09:40:47;;;;;;;3.60;2.47;;;18.10;77.90;;;;;;5070513;28;20359;-82
2021/09/02 09:43:15;;;;;;;3.05;2.42;;;18.00;72.20;;;;;;5070302;28;20413;-82
2021/09/02 09:45:49;;;;;;;2.88;2.30;;;18.10;75.30;;;;;;5072495;28;20027;-82
2021/09/02 09:48:31;;;;;;;3.38;2.13;;;18.00;71.30;;;;;;5090501;28;20032;-82
2021/09/02 09:51:10;;;;;;;3.55;2.70;;;18.10;71.60;;;;;;5104507;28;20012;-82
2021/09/02 09:53:37;;;;;;;3.65;2.40;;;18.30;77.60;;;;;;5072695;28;20070;-81
2021/09/02 09:56:04;;;;;;;3.30;2.30;;;18.30;67.30;;;;;;5072016;28;20382;-81
2021/09/02 09:58:30;;;;;;;3.40;2.25;;;18.30;67.10;;;;;;5073288;28;20028;-82
2021/09/02 10:01:01;;;;;;;3.40;2.63;;;18.30;69.80;;;;;;5072803;28;20033;-82
2021/09/02 10:03:29;;;;;;;3.72;2.70;;;18.30;67.60;;;;;;5071746;28;20013;-82
2021/09/02 10:05:59;;;;;;;3.83;2.38;;;18.20;71.80;;;;;;5073238;28;20099;-82
2021/09/02 10:08:26;;;;;;;3.67;2.30;;;18.50;74.50;;;;;;5077973;28;20529;-82
2021/09/02 10:10:53;;;;;;;4.80;2.67;;;18.50;69.60;;;;;;5081218;28;20035;-82
2021/09/02 10:13:19;;;;;;;4.10;2.95;;;18.70;73.20;;;;;;5073196;28;20073;-82
2021/09/02 10:15:46;;;;;;;2.97;2.47;;;18.70;73.00;;;;;;5093275;28;20385;-82
2021/09/02 10:18:13;;;;;;;4.95;2.40;;;18.50;71.40;;;;;;5093018;28;20103;-82
2021/09/02 10:20:41;;;;;;;3.00;2.47;;;18.30;70.20;;;;;;5082646;28;20024;-82
2021/09/02 10:23:08;;;;;;;5.05;2.40;;;18.10;67.50;;;;;;5077855;28;20020;-82
2021/09/02 10:25:39;;;;;;;9.02;2.95;;;18.10;67.60;;;;;;5109130;28;20074;-81
2021/09/02 10:28:13;;;;;;;7.85;2.60;;;18.20;69.70;;;;;;5088568;28;20481;-82
2021/09/02 10:30:45;;;;;;;4.28;2.38;;;18.30;66.60;;;;;;5071911;28;20121;-82
2021/09/02 10:33:33;;;;;;;2.15;1.98;;;18.40;67.10;;;;;;5072978;28;20066;-82
2021/09/02 10:36:10;;;;;;;3.63;2.45;;;18.40;66.00;;;;;;5072822;28;20082;-81
2021/09/02 10:38:50;;;;;;;4.07;2.35;;;18.50;67.50;;;;;;5087041;28;20110;-81
2021/09/02 10:41:36;;;;;;;2.55;2.10;;;18.50;68.70;;;;;;5085782;28;20035;-82
2021/09/02 10:44:04;;;;;;;4.53;2.58;;;18.30;61.80;;;;;;5086888;28;20024;-82
2021/09/02 10:46:40;;;;;;;5.18;2.08;;;18.40;63.20;;;;;;5092907;28;20378;-81
2021/09/02 10:49:14;;;;;;;2.47;2.28;;;18.70;64.90;;;;;;5088743;28;20024;-82
2021/09/02 10:52:04;;;;;;;3.00;2.20;;;18.70;61.80;;;;;;5070680;28;20055;-82
2021/09/02 10:54:33;;;;;;;4.53;2.20;;;18.60;60.00;;;;;;5072391;28;20066;-81
2021/09/02 10:56:58;;;;;;;2.30;1.92;;;18.50;59.90;;;;;;5071303;28;20029;-81
2021/09/02 10:59:33;;;;;;;2.40;2.20;;;18.80;61.60;;;;;;5072641;28;20029;-82
2021/09/02 11:01:59;;;;;;;3.25;1.85;;;18.70;62.60;;;;;;5076676;28;20024;-81
2021/09/02 11:04:25;;;;;;;3.08;2.17;;;18.80;61.00;;;;;;5096998;28;20114;-81
2021/09/02 11:06:50;;;;;;;2.83;1.80;;;18.60;61.30;;;;;;5095273;28;20024;-81
2021/09/02 11:09:30;;;;;;;3.15;1.92;;;18.40;63.60;;;;;;5096898;28;20031;-81
2021/09/02 11:11:55;;;;;;;2.10;1.90;;;18.50;65.10;;;;;;5095508;28;20035;-81
2021/09/02 11:14:21;;;;;;;4.35;2.28;;;18.40;62.10;;;;;;5096764;28;20373;-82
2021/09/02 11:16:47;;;;;;;3.70;1.58;;;18.30;63.60;;;;;;5112430;28;20023;-81
2021/09/02 11:19:13;;;;;;;4.30;2.28;;;18.40;62.70;;;;;;5112451;28;20030;-82
2021/09/02 11:21:39;;;;;;;2.60;1.70;;;18.50;63.80;;;;;;5093543;28;20028;-81
2021/09/02 11:24:11;;;;;;;3.67;2.15;;;18.40;65.10;;;;;;5078598;28;20108;-81
2021/09/02 11:26:41;;;;;;;1.73;1.42;;;18.30;62.10;;;;;;5087440;28;20451;-82
2021/09/02 11:29:09;;;;;;;4.25;2.17;;;18.40;64.60;;;;;;5086791;28;20055;-81
2021/09/02 11:31:35;;;;;;;2.83;1.80;;;18.40;63.50;;;;;;5078836;28;20410;-81
2021/09/02 11:34:02;;;;;;;2.15;1.80;;;18.50;64.60;;;;;;5074805;28;20020;-81
2021/09/02 11:36:29;;;;;;;3.22;2.25;;;18.40;64.50;;;;;;5074410;28;20544;-81
2021/09/02 11:39:08;;;;;;;2.42;1.85;;;18.70;69.50;;;;;;5071891;28;20017;-82
2021/09/02 11:41:34;;;;;;;3.28;2.03;;;18.90;69.10;;;;;;5069380;28;20470;-81
2021/09/02 11:44:01;;;;;;;2.63;2.10;;;19.00;65.10;;;;;;5072344;28;20115;-80
2021/09/02 11:46:27;;;;;;;3.00;2.33;;;19.00;63.40;;;;;;5073161;28;20040;-81
2021/09/02 11:48:58;;;;;;;4.45;2.00;;;19.00;66.30;;;;;;5083109;28;20020;-81
2021/09/02 11:51:25;;;;;;;6.50;2.78;;;19.10;62.70;;;;;;5084967;28;20044;-81
2021/09/02 11:54:11;;;;;;;2.80;2.15;;;18.90;62.20;;;;;;5081930;28;20070;-81
2021/09/02 11:56:39;;;;;;;2.78;2.40;;;18.90;64.80;;;;;;5074110;28;20111;-81
2021/09/02 11:59:07;;;;;;;2.83;2.25;;;19.10;66.50;;;;;;5101554;28;20107;-81
2021/09/02 12:01:40;;;;;;;3.33;2.40;;;19.30;62.60;;;;;;5094556;28;20548;-81
2021/09/02 12:04:05;;;;;;;3.97;2.60;;;19.50;63.70;;;;;;5112526;27;20027;-81
2021/09/02 12:06:32;;;;;;;4.30;2.15;;;19.70;65.60;;;;;;5110483;28;20044;-81
2021/09/02 12:09:00;;;;;;;4.90;2.92;;;19.80;63.20;;;;;;5092705;28;20016;-81
2021/09/02 12:11:27;;;;;;;3.83;2.55;;;19.90;60.40;;;;;;5109041;28;20386;-81
2021/09/02 12:13:54;;;;;;;4.95;2.72;;;19.90;61.20;;;;;;5092951;28;20111;-80
2021/09/02 12:16:22;;;;;;;4.35;3.40;;;19.70;63.30;;;;;;5093845;28;20389;-81
2021/09/02 12:18:56;;;;;;;7.13;4.10;;;19.50;60.70;;;;;;5109235;28;20024;-82
2021/09/02 12:21:31;;;;;;;4.95;2.80;;;19.70;63.10;;;;;;5084382;28;20036;-82
2021/09/02 12:24:17;;;;;;;5.07;2.80;;;19.90;64.00;;;;;;5082628;28;20027;-81
2021/09/02 12:26:43;;;;;;;4.93;2.78;;;19.90;65.80;;;;;;5091324;28;20506;-80
2021/09/02 12:29:17;;;;;;;5.03;3.35;;;19.60;64.30;;;;;;5090994;28;20032;-79
2021/09/02 12:31:44;;;;;;;4.35;2.88;;;19.60;64.90;;;;;;5091905;28;20048;-81
2021/09/02 12:34:11;;;;;;;5.10;3.33;;;19.70;65.30;;;;;;5091037;28;20023;-80
2021/09/02 12:36:39;;;;;;;5.03;3.22;;;19.70;63.80;;;;;;5092167;28;20032;-80
2021/09/02 12:39:14;;;;;;;4.13;2.95;;;19.50;63.20;;;;;;5092178;28;20026;-80